Weather  for  Frontone  -  Italy    Italy

0 °C (32 °F)

Current METAR for Frontone is :

LIVF 210155Z 01004KT 0500 SN FZFG VV/// M00/M01 Q1005 RMK MON INVIS VAL INVIS VIS MIN 0500


This is a report for Frontone - Italy.
The report was made one hour and 3 minutes ago, at 01:55 UTC .
The wind was blowing at a speed of 2.1 meters per second (4.6 miles per hour) from north (010°).
The temperature was 0 °C (32 °F), with a dew-point at -1 °C (30 °F).
The temperature felt like -3 °C (27 °F).
The atmospheric pressure was 1005 hPa (29.68 inHg).
There were a vertical visibility of nil meter (nil feet).
The overall visibility was 500 meter (1640 feet).
Currently moderate snow plus freezing fog.


Country :   A   B   C   D   E   F   G   H   I   J   K   L   M   N   O   P   Q   R   S   T   U   V   W   Y   Z


Site Info  |  Disclaimer  |  Credits  |  Privacy
Contact us  |  Add to favorites
© 2013-2018 METARs - All rights reserved